Terminal Aerodrome Forecast
Issued by NWS

Home | Current Version | Previous Version | Text Only | Print | Product List | Glossary Off
Versions: 1 2 3 4 5 6 7 8 9 10 11 12 13 14

000
FTUS42 KMHX 020537
TAFISO
TAF
KISO 020537Z 0206/0306 20005KT P6SM BKN200
     FM021700 24012G19KT P6SM VCTS SCT050CB BKN100
     FM030000 21004KT P6SM VCTS BKN050CB
      AMD LTD TO CLD VIS AND WIND=

USA.gov is the U.S. government's official web portal to all federal, state and local government web resources and services.